createdAt,value
2019-03-18T00:01:41.361Z,14.37
2019-03-18T00:04:08.915Z,15.47
2019-03-18T00:06:35.970Z,13.97
2019-03-18T00:09:03.132Z,15.23
2019-03-18T00:11:30.628Z,15.23
2019-03-18T00:13:57.623Z,16.30
2019-03-18T00:16:25.694Z,16.33
2019-03-18T00:18:52.743Z,17.57
2019-03-18T00:21:20.612Z,15.53
2019-03-18T00:23:47.667Z,15.67
2019-03-18T00:26:14.713Z,14.67
2019-03-18T00:28:41.757Z,13.03
2019-03-18T00:31:08.807Z,13.93
2019-03-18T00:33:35.805Z,13.40
2019-03-18T00:36:02.800Z,14.73
2019-03-18T00:38:29.854Z,12.57
2019-03-18T00:40:56.900Z,13.10
2019-03-18T00:43:23.946Z,14.30
2019-03-18T00:45:51.002Z,12.67
2019-03-18T00:48:18.043Z,12.87
2019-03-18T00:50:45.139Z,12.87
2019-03-18T00:53:12.145Z,12.53
2019-03-18T00:55:39.244Z,12.27
2019-03-18T00:58:08.031Z,11.43
2019-03-18T01:00:35.488Z,12.23
2019-03-18T01:03:02.641Z,11.50
2019-03-18T01:05:29.694Z,11.40
2019-03-18T01:07:56.733Z,12.57
2019-03-18T01:10:23.781Z,12.33
2019-03-18T01:12:50.840Z,11.80
2019-03-18T01:15:27.286Z,12.10
2019-03-18T01:17:44.931Z,11.33
2019-03-18T01:20:11.985Z,12.10
2019-03-18T01:22:39.639Z,11.80
2019-03-18T01:25:08.582Z,12.17
2019-03-18T01:27:35.682Z,11.07
2019-03-18T01:30:02.740Z,10.23
2019-03-18T01:32:29.727Z,11.80
2019-03-18T01:34:56.833Z,10.83
2019-03-18T01:37:23.880Z,10.27
2019-03-18T01:39:50.925Z,10.93
2019-03-18T01:42:17.974Z,10.67
2019-03-18T01:44:44.922Z,11.03
2019-03-18T01:47:11.977Z,10.93
2019-03-18T01:49:39.023Z,11.83
2019-03-18T01:52:06.173Z,11.60
2019-03-18T01:54:33.219Z,11.20
2019-03-18T01:57:00.675Z,11.27
2019-03-18T01:59:27.722Z,10.80
2019-03-18T02:01:54.776Z,10.83
2019-03-18T02:04:22.127Z,10.63
2019-03-18T02:06:51.404Z,11.07
2019-03-18T02:09:18.421Z,10.93
2019-03-18T02:11:45.424Z,10.73
2019-03-18T02:14:12.471Z,10.97
2019-03-18T02:16:39.526Z,11.87
2019-03-18T02:19:06.568Z,10.43
2019-03-18T02:21:33.617Z,11.60
2019-03-18T02:24:00.671Z,10.40
2019-03-18T02:26:27.714Z,10.40
2019-03-18T02:28:54.763Z,11.23
2019-03-18T02:31:21.823Z,10.20
2019-03-18T02:33:48.859Z,9.80
2019-03-18T02:36:15.911Z,11.60
2019-03-18T02:38:42.965Z,10.20
2019-03-18T02:41:10.007Z,10.70
2019-03-18T02:43:37.071Z,11.00
2019-03-18T02:46:10.547Z,10.47
2019-03-18T02:48:31.261Z,9.60
2019-03-18T02:50:58.303Z,9.37
2019-03-18T02:53:25.351Z,8.47
2019-03-18T02:55:52.408Z,8.47
2019-03-18T02:58:20.080Z,8.53
2019-03-18T03:00:47.066Z,8.67
2019-03-18T03:03:14.005Z,8.00
2019-03-18T03:05:41.106Z,8.10
2019-03-18T03:08:23.726Z,7.50
2019-03-18T03:10:51.596Z,8.00
2019-03-18T03:13:18.947Z,7.10
2019-03-18T03:15:46.021Z,7.30
2019-03-18T03:18:12.997Z,7.43
2019-03-18T03:20:39.986Z,7.00
2019-03-18T03:23:06.981Z,6.63
2019-03-18T03:25:34.088Z,6.73
2019-03-18T03:28:01.341Z,6.37
2019-03-18T03:30:28.389Z,5.93
2019-03-18T03:32:55.541Z,6.23
2019-03-18T03:35:22.892Z,5.50
2019-03-18T03:37:49.947Z,6.17
2019-03-18T03:40:17.808Z,6.10
2019-03-18T03:42:46.399Z,5.83
2019-03-18T03:45:13.568Z,6.13
2019-03-18T03:47:40.597Z,6.40
2019-03-18T03:50:10.512Z,6.57
2019-03-18T03:52:37.661Z,7.13
2019-03-18T03:55:04.710Z,5.70
2019-03-18T03:57:31.779Z,6.80
2019-03-18T03:59:58.919Z,6.77
2019-03-18T04:02:25.956Z,7.27
2019-03-18T04:04:53.217Z,7.43
2019-03-18T04:07:20.272Z,7.40
2019-03-18T04:09:47.306Z,8.83
2019-03-18T04:12:14.358Z,8.17
2019-03-18T04:14:41.404Z,8.67
2019-03-18T04:17:08.450Z,9.17
2019-03-18T04:19:35.506Z,8.63
2019-03-18T04:22:02.547Z,9.27
2019-03-18T04:24:29.599Z,9.07
2019-03-18T04:26:56.651Z,8.13
2019-03-18T04:29:23.710Z,8.77
2019-03-18T04:31:50.750Z,8.93
2019-03-18T04:34:17.797Z,7.20
2019-03-18T04:36:47.384Z,8.53
2019-03-18T04:39:14.447Z,7.47
2019-03-18T04:41:41.436Z,6.53
2019-03-18T04:44:08.443Z,8.77
2019-03-18T04:46:36.624Z,7.93
2019-03-18T04:49:03.665Z,9.73
2019-03-18T04:51:51.259Z,10.10
2019-03-18T04:54:33.422Z,9.47
2019-03-18T04:57:13.430Z,9.97
2019-03-18T04:59:40.501Z,9.30
2019-03-18T05:02:07.455Z,10.10
2019-03-18T05:04:34.497Z,10.93
2019-03-18T05:07:01.544Z,10.63
2019-03-18T05:09:28.493Z,10.70
2019-03-18T05:11:56.154Z,9.83
2019-03-18T05:14:23.207Z,9.73
2019-03-18T05:16:50.255Z,10.13
2019-03-18T05:19:17.299Z,9.77
2019-03-18T05:21:45.693Z,9.90
2019-03-18T05:24:12.830Z,9.60
2019-03-18T05:26:39.891Z,9.23
2019-03-18T05:29:06.944Z,9.33
2019-03-18T05:31:34.081Z,8.60
2019-03-18T05:34:01.126Z,9.80
2019-03-18T05:36:28.180Z,9.03
2019-03-18T05:38:55.183Z,9.00
2019-03-18T05:41:22.175Z,10.07
2019-03-18T05:43:50.037Z,9.83
2019-03-18T05:46:17.102Z,10.27
2019-03-18T05:48:44.244Z,9.93
2019-03-18T05:51:11.284Z,10.27
2019-03-18T05:53:38.334Z,29.90
2019-03-18T05:56:20.508Z,13.17
2019-03-18T05:58:47.548Z,10.80
2019-03-18T06:01:14.635Z,11.83
2019-03-18T06:03:41.685Z,14.03
2019-03-18T06:06:08.737Z,12.30
2019-03-18T06:08:41.516Z,14.00
2019-03-18T06:11:08.608Z,6.57
2019-03-18T06:13:35.615Z,5.57
2019-03-18T06:16:02.764Z,5.27
2019-03-18T06:18:29.880Z,5.57
2019-03-18T06:20:57.201Z,4.70
2019-03-18T06:23:24.216Z,5.13
2019-03-18T06:25:51.781Z,4.90
2019-03-18T06:28:19.488Z,4.33
2019-03-18T06:33:44.603Z,4.10
2019-03-18T06:36:11.817Z,4.30
2019-03-18T06:38:38.867Z,4.20
2019-03-18T06:41:05.916Z,4.17
2019-03-18T06:43:32.967Z,4.10
2019-03-18T06:46:00.017Z,4.57
2019-03-18T06:48:28.281Z,3.80
2019-03-18T06:50:55.301Z,3.93
2019-03-18T06:53:22.717Z,3.97
2019-03-18T06:55:49.745Z,5.10
2019-03-18T06:58:16.792Z,4.03
2019-03-18T07:00:43.991Z,4.93
2019-03-18T07:03:11.992Z,4.33
2019-03-18T07:05:57.861Z,4.73
2019-03-18T07:08:32.678Z,4.83
2019-03-18T07:10:59.653Z,4.83
2019-03-18T07:13:26.732Z,5.17
2019-03-18T07:15:53.784Z,5.60
2019-03-18T07:18:20.940Z,5.90
2019-03-18T07:20:48.085Z,5.30
2019-03-18T07:23:17.485Z,6.00
2019-03-18T07:25:44.560Z,6.57
2019-03-18T07:28:11.581Z,7.70
2019-03-18T07:30:38.630Z,6.70
2019-03-18T07:33:05.687Z,6.10
2019-03-18T07:35:57.091Z,4.60
2019-03-18T07:38:24.152Z,1.70
2019-03-18T07:40:51.197Z,1.47
2019-03-18T07:43:18.142Z,2.57
2019-03-18T07:45:45.190Z,1.80
2019-03-18T07:48:12.622Z,1.50
2019-03-18T07:50:40.107Z,0.53
2019-03-18T07:53:07.100Z,1.63
2019-03-18T07:55:34.311Z,0.83
2019-03-18T07:58:01.561Z,1.00
2019-03-18T08:00:28.713Z,0.93
2019-03-18T08:02:55.764Z,1.10
2019-03-18T08:05:22.822Z,0.90
2019-03-18T08:07:49.857Z,1.17
2019-03-18T08:10:16.910Z,0.80
2019-03-18T08:12:43.953Z,0.80
2019-03-18T08:15:11.001Z,1.00
2019-03-18T08:17:38.071Z,0.90
2019-03-18T08:20:05.099Z,0.60
2019-03-18T08:22:32.146Z,0.60
2019-03-18T08:24:59.971Z,0.53
2019-03-18T08:27:27.004Z,0.60
2019-03-18T08:29:54.030Z,0.37
2019-03-18T08:32:21.775Z,0.70
2019-03-18T08:34:48.832Z,0.37
2019-03-18T08:37:15.877Z,0.60
2019-03-18T08:39:42.938Z,0.37
2019-03-18T08:42:31.722Z,0.37
2019-03-18T08:47:56.456Z,0.40
2019-03-18T08:50:51.323Z,0.50
2019-03-18T08:53:44.062Z,0.40
2019-03-18T08:56:29.509Z,0.30
2019-03-18T08:58:54.221Z,0.50
2019-03-18T09:01:21.275Z,0.23
2019-03-18T09:03:48.428Z,0.33
2019-03-18T09:06:15.552Z,0.30
2019-03-18T09:08:43.235Z,0.40
2019-03-18T09:11:10.294Z,0.43
2019-03-18T09:13:37.337Z,0.40
2019-03-18T09:16:04.385Z,0.37
2019-03-18T09:18:31.546Z,0.53
2019-03-18T09:20:58.647Z,0.60
2019-03-18T09:23:25.730Z,0.57
2019-03-18T09:25:52.793Z,0.43
2019-03-18T09:28:22.215Z,0.37
2019-03-18T09:30:46.977Z,0.50
2019-03-18T09:33:14.851Z,0.37
2019-03-18T09:35:41.895Z,0.47
2019-03-18T09:38:08.947Z,0.33
2019-03-18T09:40:36.001Z,0.40
2019-03-18T09:43:03.041Z,0.40
2019-03-18T09:45:30.090Z,0.40
2019-03-18T09:47:57.144Z,0.43
2019-03-18T09:50:24.186Z,0.40
2019-03-18T09:52:52.419Z,0.30
2019-03-18T09:55:19.522Z,0.40
2019-03-18T09:57:46.559Z,0.30
2019-03-18T10:00:18.484Z,0.40
2019-03-18T10:02:45.474Z,0.40
2019-03-18T10:05:12.520Z,0.37
2019-03-18T10:07:39.590Z,0.60
2019-03-18T10:10:06.664Z,0.37
2019-03-18T10:12:35.302Z,0.30
2019-03-18T10:15:02.373Z,0.40
2019-03-18T10:17:29.336Z,0.30
2019-03-18T10:19:56.863Z,0.40
2019-03-18T10:22:42.849Z,0.57
2019-03-18T10:25:36.550Z,0.37
2019-03-18T10:28:17.809Z,0.20
2019-03-18T10:31:06.927Z,0.40
2019-03-18T10:33:34.027Z,0.80
2019-03-18T10:36:01.074Z,0.40
2019-03-18T10:38:28.061Z,0.30
2019-03-18T10:40:55.270Z,0.30
2019-03-18T10:43:22.327Z,0.50
2019-03-18T10:45:49.476Z,0.43
2019-03-18T10:48:16.517Z,0.30
2019-03-18T10:50:43.569Z,0.30
2019-03-18T10:53:10.620Z,0.27
2019-03-18T10:55:37.663Z,0.30
2019-03-18T10:58:04.739Z,0.40
2019-03-18T11:00:31.863Z,0.47
2019-03-18T11:02:58.916Z,0.10
2019-03-18T11:05:26.166Z,0.30
2019-03-18T11:07:53.545Z,0.30
2019-03-18T11:10:20.568Z,0.20
2019-03-18T11:12:47.637Z,0.43
2019-03-18T11:15:18.558Z,0.30
2019-03-18T11:17:45.508Z,0.33
2019-03-18T11:20:12.496Z,0.40
2019-03-18T11:22:39.624Z,0.30
2019-03-18T11:25:06.729Z,0.33
2019-03-18T11:27:33.807Z,0.20
2019-03-18T11:30:01.980Z,0.40
2019-03-18T11:32:29.029Z,0.53
2019-03-18T11:34:56.072Z,0.40
2019-03-18T11:37:23.129Z,0.50
2019-03-18T11:39:50.692Z,0.50
2019-03-18T11:42:18.332Z,0.40
2019-03-18T11:44:45.397Z,0.53
2019-03-18T11:47:12.420Z,0.63
2019-03-18T11:49:40.066Z,0.67
2019-03-18T11:52:07.972Z,0.47
2019-03-18T11:54:39.821Z,0.30
2019-03-18T11:57:07.090Z,0.43
2019-03-18T11:59:34.207Z,0.40
2019-03-18T12:02:01.697Z,0.37
2019-03-18T12:04:28.752Z,0.40
2019-03-18T12:06:55.925Z,0.50
2019-03-18T12:09:25.948Z,0.40
2019-03-18T12:11:52.970Z,0.30
2019-03-18T12:14:20.013Z,0.20
2019-03-18T12:16:49.064Z,0.40
2019-03-18T12:19:16.168Z,0.50
2019-03-18T12:21:43.203Z,0.30
2019-03-18T12:24:11.740Z,0.30
2019-03-18T12:26:38.832Z,0.60
2019-03-18T12:29:06.502Z,0.97
2019-03-18T12:31:56.263Z,0.33
2019-03-18T12:34:24.391Z,0.50
2019-03-18T12:36:51.511Z,0.70
2019-03-18T12:39:20.091Z,0.80
2019-03-18T12:41:47.104Z,0.40
2019-03-18T12:44:14.198Z,0.33
2019-03-18T12:46:41.236Z,0.70
2019-03-18T12:49:08.387Z,0.50
2019-03-18T12:51:35.540Z,0.50
2019-03-18T12:54:02.999Z,0.33
2019-03-18T12:56:30.044Z,0.23
2019-03-18T12:58:57.407Z,0.40
2019-03-18T13:01:24.556Z,0.50
2019-03-18T13:03:51.599Z,0.20
2019-03-18T13:06:18.650Z,0.40
2019-03-18T13:08:46.268Z,0.20
2019-03-18T13:11:13.210Z,0.20
2019-03-18T13:13:40.263Z,0.23
2019-03-18T13:16:07.378Z,0.20
2019-03-18T13:18:34.402Z,0.30
2019-03-18T13:21:07.849Z,0.40
2019-03-18T13:23:28.610Z,0.10
2019-03-18T13:25:55.625Z,0.13
2019-03-18T13:28:22.711Z,0.20
2019-03-18T13:30:49.856Z,0.20
2019-03-18T13:33:16.907Z,0.30
2019-03-18T13:35:43.902Z,0.27
2019-03-18T13:38:10.996Z,0.10
2019-03-18T13:40:38.273Z,0.30
2019-03-18T13:43:07.719Z,0.20
2019-03-18T13:45:35.116Z,0.10
2019-03-18T13:48:02.166Z,0.30
2019-03-18T13:50:29.209Z,0.30
2019-03-18T13:52:56.268Z,0.10
2019-03-18T13:55:24.191Z,0.40
2019-03-18T13:57:51.281Z,0.40
2019-03-18T14:00:19.144Z,0.40
2019-03-18T14:02:46.294Z,0.50
2019-03-18T14:05:13.344Z,0.20
2019-03-18T14:07:40.496Z,0.17
2019-03-18T14:10:07.501Z,0.30
2019-03-18T14:12:36.986Z,0.30
2019-03-18T14:15:01.750Z,0.30
2019-03-18T14:17:28.793Z,0.30
2019-03-18T14:19:55.845Z,0.30
2019-03-18T14:22:22.890Z,0.10
2019-03-18T14:24:50.342Z,0.40
2019-03-18T14:27:17.823Z,0.30
2019-03-18T14:29:44.852Z,0.30
2019-03-18T14:32:12.523Z,0.30
2019-03-18T14:34:39.786Z,0.20
2019-03-18T14:37:07.023Z,0.20
2019-03-18T14:39:34.071Z,0.20
2019-03-18T14:42:10.759Z,0.27
2019-03-18T14:44:37.740Z,0.50
2019-03-18T14:47:04.950Z,0.20
2019-03-18T14:49:31.993Z,0.10
2019-03-18T14:51:59.054Z,0.27
2019-03-18T14:54:26.096Z,0.30
2019-03-18T14:56:53.351Z,0.37
2019-03-18T14:59:20.802Z,0.43
2019-03-18T15:01:47.859Z,0.10
2019-03-18T15:04:14.868Z,0.20
2019-03-18T15:06:41.953Z,0.17
2019-03-18T15:09:09.003Z,0.20
2019-03-18T15:11:36.047Z,0.23
2019-03-18T15:14:03.094Z,0.30
2019-03-18T15:16:30.148Z,0.40
2019-03-18T15:18:57.141Z,1.37
2019-03-18T15:21:24.453Z,0.30
2019-03-18T15:23:51.493Z,0.50
2019-03-18T15:26:20.054Z,0.03
2019-03-18T15:28:48.562Z,0.10
2019-03-18T15:31:15.564Z,0.30
2019-03-18T15:33:42.557Z,0.20
2019-03-18T15:36:28.278Z,0.20
2019-03-18T15:39:01.495Z,0.30
2019-03-18T15:41:31.630Z,0.10
2019-03-18T15:43:58.807Z,0.10
2019-03-18T15:46:25.816Z,0.27
2019-03-18T15:48:52.910Z,0.27
2019-03-18T15:51:22.774Z,0.20
2019-03-18T15:53:49.867Z,0.20
2019-03-18T15:56:16.917Z,0.37
2019-03-18T15:58:46.123Z,0.00
2019-03-18T16:01:13.164Z,0.27
2019-03-18T16:03:40.602Z,0.30
2019-03-18T16:06:07.636Z,0.30
2019-03-18T16:08:34.736Z,0.50
2019-03-18T16:11:05.255Z,0.53
2019-03-18T16:13:32.302Z,0.43
2019-03-18T16:15:59.345Z,0.50
2019-03-18T16:18:42.784Z,3.90
2019-03-18T16:21:16.531Z,0.13
2019-03-18T16:23:43.532Z,0.20
2019-03-18T16:26:10.588Z,0.30
2019-03-18T16:28:39.116Z,0.20
2019-03-18T16:31:07.205Z,0.40
2019-03-18T16:33:34.388Z,0.57
2019-03-18T16:36:01.466Z,0.40
2019-03-18T16:38:28.493Z,0.40
2019-03-18T16:40:55.641Z,0.47
2019-03-18T16:43:22.795Z,0.83
2019-03-18T16:45:52.352Z,0.30
2019-03-18T16:48:19.341Z,0.70
2019-03-18T16:50:46.397Z,1.30
2019-03-18T16:53:13.442Z,0.63
2019-03-18T16:55:56.387Z,0.30
2019-03-18T16:58:23.413Z,0.67
2019-03-18T17:00:52.583Z,0.30
2019-03-18T17:03:19.671Z,0.40
2019-03-18T17:05:46.821Z,0.20
2019-03-18T17:08:13.855Z,0.30
2019-03-18T17:10:40.905Z,0.50
2019-03-18T17:13:08.056Z,0.60
2019-03-18T17:15:35.122Z,0.63
2019-03-18T17:18:04.102Z,0.50
2019-03-18T17:20:50.215Z,0.40
2019-03-18T17:23:17.243Z,0.80
2019-03-18T17:25:46.339Z,0.57
2019-03-18T17:28:13.490Z,0.50
2019-03-18T17:30:41.225Z,0.40
2019-03-18T17:33:10.210Z,0.20
2019-03-18T17:35:41.338Z,0.90
2019-03-18T17:38:09.293Z,0.40
2019-03-18T17:40:40.203Z,0.40
2019-03-18T17:43:10.230Z,0.40
2019-03-18T17:45:37.369Z,0.00
2019-03-18T17:48:04.427Z,0.33
2019-03-18T17:50:31.672Z,0.60
2019-03-18T17:53:03.208Z,0.50
2019-03-18T17:55:25.870Z,0.20
2019-03-18T17:57:52.934Z,0.40
2019-03-18T18:00:21.979Z,0.73
2019-03-18T18:02:49.169Z,1.75
2019-03-18T18:05:16.221Z,1.00
2019-03-18T18:07:44.500Z,0.70
2019-03-18T18:10:12.468Z,1.00
2019-03-18T18:12:39.518Z,0.80
2019-03-18T18:15:16.504Z,0.20
2019-03-18T18:17:43.546Z,0.67
2019-03-18T18:20:11.514Z,0.97
2019-03-18T18:22:40.908Z,0.10
2019-03-18T18:25:05.687Z,0.60
2019-03-18T18:27:32.659Z,0.53
2019-03-18T18:29:59.715Z,0.57
2019-03-18T18:32:26.811Z,0.43
2019-03-18T18:34:53.940Z,0.90
2019-03-18T18:37:27.583Z,1.30
2019-03-18T18:39:54.661Z,0.77
2019-03-18T18:42:21.708Z,0.70
2019-03-18T18:44:48.764Z,0.40
2019-03-18T18:47:16.590Z,0.60
2019-03-18T18:49:43.775Z,0.90
2019-03-18T18:52:10.831Z,1.03
2019-03-18T18:54:38.901Z,0.50
2019-03-18T18:57:05.860Z,0.80
2019-03-18T18:59:34.835Z,0.90
2019-03-18T19:02:01.891Z,0.80
2019-03-18T19:04:30.578Z,1.00
2019-03-18T19:06:59.615Z,0.73
2019-03-18T19:09:26.614Z,0.73
2019-03-18T19:11:55.102Z,1.20
2019-03-18T19:14:22.150Z,1.00
2019-03-18T19:16:49.193Z,1.10
2019-03-18T19:19:18.284Z,1.10
2019-03-18T19:21:45.700Z,0.90
2019-03-18T19:24:12.796Z,1.00
2019-03-18T19:26:41.278Z,1.20
2019-03-18T19:29:08.332Z,1.30
2019-03-18T19:31:35.384Z,1.30
2019-03-18T19:34:03.148Z,1.20
2019-03-18T19:36:30.206Z,1.20
2019-03-18T19:38:57.347Z,1.20
2019-03-18T19:41:24.409Z,1.20
2019-03-18T19:43:51.445Z,1.30
2019-03-18T19:46:18.451Z,1.07
2019-03-18T19:48:45.539Z,1.20
2019-03-18T19:51:12.591Z,1.30
2019-03-18T19:53:48.646Z,1.50
2019-03-18T19:56:06.891Z,1.60
2019-03-18T19:58:33.892Z,1.40
2019-03-18T20:01:00.886Z,1.60
2019-03-18T20:03:27.895Z,1.50
2019-03-18T20:05:54.936Z,1.43
2019-03-18T20:08:22.130Z,1.43
2019-03-18T20:10:50.106Z,1.40
2019-03-18T20:13:17.149Z,1.70
2019-03-18T20:16:05.437Z,1.60
2019-03-18T20:18:35.413Z,2.30
2019-03-18T20:21:02.417Z,2.10
2019-03-18T20:23:29.513Z,2.43
2019-03-18T20:25:56.563Z,2.30
2019-03-18T20:28:23.605Z,2.40
2019-03-18T20:30:50.667Z,2.00
2019-03-18T20:33:17.810Z,2.23
2019-03-18T20:35:44.857Z,1.33
2019-03-18T20:38:11.901Z,1.87
2019-03-18T20:40:38.847Z,2.10
2019-03-18T20:43:05.896Z,4.17
2019-03-18T20:45:32.956Z,9.83
2019-03-18T20:47:59.993Z,6.40
2019-03-18T20:50:27.357Z,5.00
2019-03-18T20:52:54.402Z,9.23
2019-03-18T20:55:21.562Z,7.90
2019-03-18T20:57:48.549Z,6.70
2019-03-18T21:00:19.665Z,4.70
2019-03-18T21:02:46.694Z,12.63
2019-03-18T21:05:16.092Z,18.33
2019-03-18T21:07:43.146Z,13.97
2019-03-18T21:10:13.183Z,10.23
2019-03-18T21:12:41.407Z,7.37
2019-03-18T21:15:07.566Z,9.33
2019-03-18T21:17:34.624Z,27.57
2019-03-18T21:20:01.667Z,23.40
2019-03-18T21:22:32.108Z,4.20
2019-03-18T21:25:00.846Z,4.00
2019-03-18T21:27:28.926Z,3.83
2019-03-18T21:29:55.998Z,4.20
2019-03-18T21:32:23.765Z,3.87
2019-03-18T21:34:50.811Z,4.80
2019-03-18T21:37:17.890Z,3.57
2019-03-18T21:39:46.861Z,3.70
2019-03-18T21:42:13.996Z,3.67
2019-03-18T21:44:41.055Z,3.20
2019-03-18T21:47:08.104Z,3.37
2019-03-18T21:49:35.157Z,3.40
2019-03-18T21:52:02.200Z,3.00
2019-03-18T21:54:34.415Z,3.43
2019-03-18T21:56:59.817Z,3.37
2019-03-18T21:59:27.288Z,3.67
2019-03-18T22:01:54.296Z,3.07
2019-03-18T22:04:21.360Z,3.07
2019-03-18T22:06:51.147Z,2.50
2019-03-18T22:09:18.508Z,3.57
2019-03-18T22:11:45.551Z,3.57
2019-03-18T22:14:12.614Z,3.23
2019-03-18T22:16:39.654Z,3.53
2019-03-18T22:19:06.698Z,5.28
2019-03-18T22:21:33.745Z,4.30
2019-03-18T22:24:00.799Z,4.03
2019-03-18T22:26:27.793Z,3.67
2019-03-18T22:28:54.892Z,3.77
2019-03-18T22:31:22.866Z,3.90
2019-03-18T22:33:50.422Z,3.83
2019-03-18T22:36:17.477Z,3.60
2019-03-18T22:38:44.519Z,4.33
2019-03-18T22:41:11.778Z,3.60
2019-03-18T22:43:38.821Z,4.10
2019-03-18T22:46:05.869Z,3.60
2019-03-18T22:48:34.864Z,4.87
2019-03-18T22:51:01.863Z,3.93
2019-03-18T22:53:28.959Z,4.03
2019-03-18T22:55:57.141Z,4.47
2019-03-18T22:58:24.082Z,4.40
2019-03-18T23:00:51.235Z,4.10
2019-03-18T23:03:18.999Z,3.67
2019-03-18T23:05:46.051Z,4.23
2019-03-18T23:08:13.109Z,4.27
2019-03-18T23:10:41.381Z,3.83
2019-03-18T23:13:08.427Z,3.10
2019-03-18T23:15:35.436Z,4.40
2019-03-18T23:18:02.518Z,3.67
2019-03-18T23:20:31.517Z,3.90
2019-03-18T23:22:58.568Z,3.00
2019-03-18T23:25:25.612Z,3.23
2019-03-18T23:27:52.660Z,3.70
2019-03-18T23:30:19.712Z,2.80
2019-03-18T23:32:46.759Z,3.33
2019-03-18T23:35:13.955Z,2.67
2019-03-18T23:37:40.956Z,1.70
2019-03-18T23:40:08.210Z,2.77
2019-03-18T23:42:37.311Z,2.57
2019-03-18T23:45:04.353Z,3.00
2019-03-18T23:47:31.402Z,2.90
2019-03-18T23:49:58.455Z,3.27
2019-03-18T23:52:27.341Z,3.33
2019-03-18T23:54:54.392Z,3.00
2019-03-18T23:57:21.444Z,3.27
2019-03-18T23:59:48.386Z,3.37
